Time;durP1;ratioP1;P1;durP2;ratioP2;P2;SDS_P1;SDS_P2;PMS_P1;PMS_P2;Temp;Humidity;BMP_temperature;BMP_pressure;BME280_temperature;BME280_humidity;BME280_pressure;Samples;Min_cycle;Max_cycle;Signal;HPM_P1;HPM_P2
2022/05/09 00:02:03;;;;;;;0.40;0.30;;;;;;;13.67;48.54;101427.61;103543;1276;108754;-64
2022/05/09 00:04:31;;;;;;;0.40;0.30;;;;;;;13.63;48.80;101433.61;103654;1277;94738;-65
2022/05/09 00:06:59;;;;;;;0.40;0.30;;;;;;;13.59;49.07;101440.27;103506;1276;94325;-65
2022/05/09 00:09:27;;;;;;;0.40;0.30;;;;;;;13.57;49.23;101447.47;103259;1277;109069;-65
2022/05/09 00:11:55;;;;;;;0.40;0.30;;;;;;;13.55;49.35;101450.02;103550;1277;99592;-65
2022/05/09 00:14:24;;;;;;;0.40;0.30;;;;;;;13.53;49.57;101450.75;103608;1276;109335;-65
2022/05/09 00:16:52;;;;;;;0.40;0.30;;;;;;;13.53;49.63;101450.05;103513;1277;95474;-64
2022/05/09 00:19:23;;;;;;;0.40;0.30;;;;;;;13.54;49.84;101458.23;103564;1276;94399;-64
2022/05/09 00:21:52;;;;;;;0.40;0.30;;;;;;;13.53;49.97;101456.65;103624;1276;108835;-65
2022/05/09 00:24:21;;;;;;;0.40;0.30;;;;;;;13.47;50.39;101460.16;103866;1276;99870;-65
2022/05/09 00:26:51;;;;;;;0.40;0.30;;;;;;;13.31;50.72;101459.73;103648;1276;109197;-65
2022/05/09 00:29:23;;;;;;;0.40;0.30;;;;;;;13.26;50.93;101459.34;103560;1277;94743;-65
2022/05/09 00:31:53;;;;;;;0.40;0.30;;;;;;;13.28;50.85;101463.92;103665;1276;94801;-65
2022/05/09 00:34:22;;;;;;;0.40;0.30;;;;;;;13.26;51.21;101469.84;103604;1276;107350;-65
2022/05/09 00:36:52;;;;;;;0.40;0.30;;;;;;;13.16;51.33;101474.32;104053;1276;99389;-66
2022/05/09 00:39:20;;;;;;;0.40;0.30;;;;;;;13.13;51.66;101476.88;103638;1277;108780;-66
2022/05/09 00:41:48;;;;;;;0.40;0.30;;;;;;;13.09;51.61;101476.77;103467;1278;95463;-65
2022/05/09 00:44:22;;;;;;;0.40;0.30;;;;;;;13.10;51.79;101477.47;103628;1276;94598;-64
2022/05/09 00:46:53;;;;;;;0.40;0.30;;;;;;;13.02;52.04;101479.94;103609;1277;108365;-65
2022/05/09 00:49:27;;;;;;;0.40;0.30;;;;;;;12.92;52.37;101484.59;103616;1277;99311;-65
2022/05/09 00:52:12;;;;;;;0.40;0.30;;;;;;;12.85;52.59;101488.98;103539;1276;108892;-65
2022/05/09 00:54:44;;;;;;;0.40;0.30;;;;;;;12.87;52.50;101486.46;103511;1277;94763;-65
2022/05/09 00:57:21;;;;;;;0.40;0.30;;;;;;;12.81;52.66;101488.89;103710;1276;95143;-65
2022/05/09 00:59:50;;;;;;;0.40;0.30;;;;;;;12.84;52.53;101489.75;103607;1276;109263;-66
2022/05/09 01:02:19;;;;;;;0.40;0.30;;;;;;;12.85;52.47;101490.06;103546;1276;99636;-66
2022/05/09 01:04:51;;;;;;;0.40;0.30;;;;;;;12.91;52.44;101492.27;103562;1277;109258;-65
2022/05/09 01:07:20;;;;;;;0.40;0.30;;;;;;;12.89;52.42;101493.73;103992;1276;95409;-65
2022/05/09 01:09:48;;;;;;;0.40;0.30;;;;;;;12.88;52.37;101497.48;103611;1276;96104;-65
2022/05/09 01:12:29;;;;;;;0.40;0.30;;;;;;;12.91;52.35;101498.69;103622;1277;108346;-64
2022/05/09 01:15:03;;;;;;;0.40;0.30;;;;;;;12.79;52.55;101501.58;103588;1277;99783;-65
2022/05/09 01:17:32;;;;;;;0.40;0.30;;;;;;;12.73;52.61;101496.69;103543;1276;108870;-65
2022/05/09 01:20:01;;;;;;;0.40;0.30;;;;;;;12.74;52.61;101504.17;103940;1276;94357;-65
2022/05/09 01:22:34;;;;;;;0.40;0.30;;;;;;;12.65;52.85;101502.35;103738;1276;94597;-64
2022/05/09 01:25:06;;;;;;;0.40;0.30;;;;;;;12.63;52.86;101501.33;103566;1277;108102;-66
2022/05/09 01:27:38;;;;;;;0.40;0.30;;;;;;;12.67;52.74;101501.59;103767;1276;99186;-65
2022/05/09 01:30:13;;;;;;;0.40;0.30;;;;;;;12.68;52.64;101503.92;103826;1277;108826;-64
2022/05/09 01:32:52;;;;;;;0.40;0.30;;;;;;;12.64;52.89;101501.49;103500;1277;94702;-67
2022/05/09 01:35:25;;;;;;;0.40;0.40;;;;;;;12.54;53.00;101499.50;103569;1276;95821;-65
2022/05/09 01:38:01;;;;;;;0.40;0.30;;;;;;;12.47;53.29;101503.56;103913;1276;107335;-65
2022/05/09 01:40:29;;;;;;;0.40;0.30;;;;;;;12.37;53.59;101502.28;103574;1276;99628;-67
2022/05/09 01:42:57;;;;;;;0.40;0.30;;;;;;;12.28;53.66;101502.96;103507;1275;109047;-65
2022/05/09 01:45:24;;;;;;;0.40;0.30;;;;;;;12.29;53.74;101502.76;103537;1276;94759;-63
2022/05/09 01:50:56;;;;;;;0.40;0.30;;;;;;;12.35;53.28;101512.99;103078;1282;109041;-65
2022/05/09 01:53:24;;;;;;;0.40;0.30;;;;;;;12.39;53.19;101514.55;103562;1276;99438;-64
2022/05/09 01:55:51;;;;;;;0.40;0.30;;;;;;;12.33;53.20;101515.17;103589;1277;108971;-63
2022/05/09 01:58:19;;;;;;;0.40;0.30;;;;;;;12.24;53.18;101515.66;103516;1277;97120;-65
2022/05/09 02:00:47;;;;;;;0.40;0.30;;;;;;;12.14;53.30;101518.13;103563;1276;94859;-65
2022/05/09 02:03:16;;;;;;;0.40;0.30;;;;;;;12.07;53.22;101517.52;103616;1277;108306;-65
2022/05/09 02:05:44;;;;;;;0.40;0.30;;;;;;;12.03;53.20;101518.09;103642;1277;99782;-64
2022/05/09 02:08:12;;;;;;;0.40;0.30;;;;;;;12.01;53.22;101525.27;103499;1276;109039;-66
2022/05/09 02:10:41;;;;;;;0.40;0.30;;;;;;;11.96;53.20;101523.17;103523;1276;94845;-65
2022/05/09 02:13:09;;;;;;;0.40;0.30;;;;;;;11.89;53.30;101520.41;103913;1277;94360;-65
2022/05/09 02:15:37;;;;;;;0.40;0.30;;;;;;;11.78;53.42;101523.41;103602;1277;108446;-66
2022/05/09 02:18:05;;;;;;;0.40;0.30;;;;;;;11.76;53.44;101523.96;103547;1276;99521;-66
2022/05/09 02:20:34;;;;;;;0.40;0.30;;;;;;;11.75;53.36;101525.91;103592;1277;108730;-65
2022/05/09 02:23:02;;;;;;;0.40;0.40;;;;;;;11.76;53.27;101527.88;103531;1277;94941;-64
2022/05/09 02:25:30;;;;;;;0.40;0.30;;;;;;;11.72;53.11;101532.55;103529;1276;94502;-65
2022/05/09 02:28:00;;;;;;;0.40;0.30;;;;;;;11.70;53.01;101530.45;103615;1276;108436;-65
2022/05/09 02:30:29;;;;;;;0.40;0.40;;;;;;;11.70;53.00;101535.79;103992;1276;99370;-65
2022/05/09 02:32:57;;;;;;;0.40;0.30;;;;;;;11.71;52.88;101539.34;103673;1277;108903;-66
2022/05/09 02:35:25;;;;;;;0.50;0.50;;;;;;;11.70;52.68;101539.88;103566;1276;94637;-65
2022/05/09 02:37:53;;;;;;;0.40;0.40;;;;;;;11.63;52.67;101545.65;103655;1277;94618;-65
2022/05/09 02:40:24;;;;;;;0.40;0.40;;;;;;;11.58;52.59;101546.42;103573;1277;108545;-66
2022/05/09 02:42:53;;;;;;;0.40;0.40;;;;;;;11.56;52.45;101547.87;103568;1277;99586;-64
2022/05/09 02:45:21;;;;;;;0.40;0.40;;;;;;;11.47;52.47;101549.03;103661;1276;108833;-67
2022/05/09 02:47:49;;;;;;;0.40;0.40;;;;;;;11.42;52.51;101550.89;103538;1276;94737;-66
2022/05/09 02:50:19;;;;;;;0.50;0.40;;;;;;;11.33;52.38;101554.52;103645;1276;94718;-66
2022/05/09 02:52:48;;;;;;;0.50;0.40;;;;;;;11.33;52.37;101554.34;103565;1276;108279;-66
2022/05/09 02:55:17;;;;;;;0.40;0.40;;;;;;;11.34;52.20;101554.52;103690;1276;100047;-66
2022/05/09 02:57:46;;;;;;;0.40;0.40;;;;;;;11.28;52.08;101559.73;103865;1277;108877;-64
2022/05/09 03:00:18;;;;;;;0.40;0.40;;;;;;;11.22;52.19;101561.59;103596;1277;94287;-66
2022/05/09 03:05:38;;;;;;;0.40;0.40;;;;;;;11.10;52.13;101566.86;103864;1275;108388;-67
2022/05/09 03:08:10;;;;;;;0.50;0.40;;;;;;;11.00;52.32;101571.92;103520;1277;99299;-66
2022/05/09 03:10:39;;;;;;;0.50;0.40;;;;;;;11.02;52.28;101577.06;103645;1275;109264;-66
2022/05/09 03:13:08;;;;;;;0.40;0.40;;;;;;;10.99;52.17;101577.09;105253;1275;94312;-66
2022/05/09 03:15:39;;;;;;;0.50;0.40;;;;;;;10.94;52.04;101580.86;103665;1274;96747;-67
2022/05/09 03:18:07;;;;;;;0.50;0.40;;;;;;;10.81;52.20;101581.15;103652;1277;108331;-67
2022/05/09 03:20:36;;;;;;;0.50;0.50;;;;;;;10.75;52.47;101581.73;103964;1277;98689;-67
2022/05/09 03:23:05;;;;;;;0.60;0.60;;;;;;;10.80;52.42;101579.20;103609;1274;108734;-67
2022/05/09 03:25:35;;;;;;;0.50;0.50;;;;;;;10.84;52.28;101581.84;103706;1275;94295;-66
2022/05/09 03:28:06;;;;;;;0.50;0.40;;;;;;;10.79;52.17;101585.25;103760;1274;94874;-66
2022/05/09 03:30:34;;;;;;;0.50;0.50;;;;;;;10.70;52.17;101588.16;103978;1275;108850;-66
2022/05/09 03:33:03;;;;;;;0.50;0.50;;;;;;;10.68;52.15;101594.77;103722;1275;98370;-65
2022/05/09 03:35:31;;;;;;;0.50;0.50;;;;;;;10.66;52.16;101597.79;103722;1274;107778;-66
2022/05/09 03:37:59;;;;;;;0.50;0.40;;;;;;;10.64;52.14;101600.99;103655;1274;94722;-66
2022/05/09 03:40:26;;;;;;;0.40;0.40;;;;;;;10.68;52.24;101603.45;103650;1274;95489;-66
2022/05/09 03:42:54;;;;;;;0.50;0.40;;;;;;;10.74;51.82;101606.42;104162;1275;108351;-66
2022/05/09 03:45:22;;;;;;;0.40;0.40;;;;;;;10.76;51.94;101612.11;103645;1275;99364;-67
2022/05/09 03:47:50;;;;;;;0.50;0.40;;;;;;;10.74;51.80;101616.38;103663;1274;109029;-67
2022/05/09 03:50:18;;;;;;;0.50;0.40;;;;;;;10.79;51.85;101622.20;103595;1277;94520;-65
2022/05/09 03:52:46;;;;;;;0.40;0.40;;;;;;;10.80;51.46;101623.45;103581;1277;94324;-65
2022/05/09 03:55:14;;;;;;;0.50;0.40;;;;;;;10.73;51.31;101626.86;103597;1277;108414;-66
2022/05/09 03:57:50;;;;;;;0.40;0.40;;;;;;;10.71;51.37;101629.02;103527;1277;98176;-66
2022/05/09 04:00:21;;;;;;;0.50;0.50;;;;;;;10.70;51.26;101630.79;103661;1275;108296;-66
2022/05/09 04:02:49;;;;;;;0.40;0.40;;;;;;;10.75;51.30;101630.05;104195;1274;94839;-67
2022/05/09 04:05:17;;;;;;;0.40;0.40;;;;;;;10.78;51.16;101633.58;103624;1277;94572;-66
2022/05/09 04:07:51;;;;;;;0.40;0.40;;;;;;;10.84;51.12;101635.67;103688;1275;108337;-66
2022/05/09 04:10:22;;;;;;;0.50;0.40;;;;;;;10.90;51.19;101635.63;104283;1274;99393;-66
2022/05/09 04:12:50;;;;;;;0.50;0.40;;;;;;;10.94;50.90;101638.80;103775;1275;108782;-67
2022/05/09 04:18:06;;;;;;;0.40;0.40;;;;;;;10.83;50.49;101640.11;103695;1274;94324;-66
2022/05/09 04:20:36;;;;;;;0.40;0.40;;;;;;;10.82;50.71;101640.66;103754;1274;108329;-65
2022/05/09 04:23:04;;;;;;;0.40;0.40;;;;;;;10.85;50.46;101639.93;103676;1275;98450;-65
2022/05/09 04:25:32;;;;;;;0.40;0.40;;;;;;;10.85;50.83;101643.65;103672;1274;108715;-65
2022/05/09 04:28:03;;;;;;;0.50;0.40;;;;;;;10.88;50.70;101644.52;103563;1274;94322;-66
2022/05/09 04:30:32;;;;;;;0.40;0.40;;;;;;;11.00;50.47;101640.70;103646;1277;94276;-66
2022/05/09 04:33:00;;;;;;;0.40;0.40;;;;;;;11.07;50.04;101642.77;103730;1274;108865;-65
2022/05/09 04:35:29;;;;;;;0.40;0.40;;;;;;;11.06;49.88;101640.29;104046;1274;99531;-65
2022/05/09 04:37:57;;;;;;;0.50;0.40;;;;;;;11.09;49.97;101644.54;103658;1274;108845;-66
2022/05/09 04:40:31;;;;;;;0.50;0.40;;;;;;;11.13;49.79;101643.43;103612;1275;94534;-65
2022/05/09 04:43:00;;;;;;;0.40;0.40;;;;;;;11.16;49.57;101649.81;103597;1275;94804;-66
2022/05/09 04:45:29;;;;;;;0.40;0.40;;;;;;;11.22;49.44;101649.75;103800;1274;108929;-65
2022/05/09 04:47:57;;;;;;;0.40;0.40;;;;;;;11.28;48.97;101653.80;103701;1274;99781;-64
2022/05/09 04:50:26;;;;;;;0.40;0.40;;;;;;;11.28;48.25;101657.70;103640;1275;108838;-68
2022/05/09 04:52:54;;;;;;;0.40;0.40;;;;;;;11.31;48.74;101659.10;103714;1274;94346;-68
2022/05/09 04:55:26;;;;;;;0.40;0.40;;;;;;;11.40;48.52;101660.25;104124;1275;94293;-70
2022/05/09 04:57:54;;;;;;;0.40;0.40;;;;;;;11.54;48.18;101663.70;103590;1277;108146;-68
2022/05/09 05:00:27;;;;;;;0.40;0.40;;;;;;;11.55;47.88;101668.48;103734;1274;99364;-69
2022/05/09 05:02:56;;;;;;;0.40;0.40;;;;;;;11.64;48.12;101671.05;103696;1274;109142;-68
2022/05/09 05:05:25;;;;;;;0.40;0.40;;;;;;;11.75;47.33;101665.96;103792;1274;94335;-67
2022/05/09 05:07:54;;;;;;;0.40;0.40;;;;;;;11.70;46.45;101666.70;103737;1274;94494;-68
2022/05/09 05:10:27;;;;;;;0.40;0.30;;;;;;;11.72;46.90;101669.91;103703;1274;108465;-69
2022/05/09 05:12:57;;;;;;;0.40;0.40;;;;;;;11.82;46.69;101668.01;103885;1274;99387;-68
2022/05/09 05:15:26;;;;;;;0.40;0.30;;;;;;;11.98;46.49;101671.95;104092;1274;108805;-67
2022/05/09 05:17:54;;;;;;;0.40;0.40;;;;;;;12.00;45.25;101674.42;103667;1274;94868;-66
2022/05/09 05:20:23;;;;;;;0.40;0.40;;;;;;;11.98;44.75;101678.38;103684;1275;94820;-64
2022/05/09 05:22:51;;;;;;;0.40;0.30;;;;;;;12.01;45.41;101678.85;103990;1274;108456;-65
2022/05/09 05:25:24;;;;;;;0.40;0.30;;;;;;;12.17;45.64;101680.98;103615;1274;99478;-66
2022/05/09 05:27:53;;;;;;;0.40;0.30;;;;;;;12.31;45.15;101680.63;103602;1275;108161;-67
2022/05/09 05:30:21;;;;;;;0.40;0.30;;;;;;;12.48;44.73;101682.39;103671;1274;94327;-67
2022/05/09 05:32:50;;;;;;;0.40;0.30;;;;;;;12.52;44.45;101684.09;103888;1274;94318;-67
2022/05/09 05:35:22;;;;;;;0.40;0.30;;;;;;;12.56;43.78;101690.83;103754;1274;109005;-67
2022/05/09 05:37:51;;;;;;;0.40;0.30;;;;;;;12.55;43.72;101695.29;103787;1274;99889;-68
2022/05/09 05:40:19;;;;;;;0.40;0.30;;;;;;;12.63;43.94;101689.66;103526;1277;108166;-66
2022/05/09 05:42:50;;;;;;;0.40;0.30;;;;;;;12.79;43.23;101696.02;107623;1274;92830;-67
2022/05/09 05:45:20;;;;;;;0.40;0.30;;;;;;;12.95;43.15;101703.44;105663;1274;94526;-67
2022/05/09 05:47:49;;;;;;;0.40;0.30;;;;;;;13.19;42.66;101700.92;103740;1274;107318;-67
2022/05/09 05:50:19;;;;;;;0.40;0.30;;;;;;;13.41;42.50;101701.32;103756;1274;99707;-67
2022/05/09 05:52:47;;;;;;;0.40;0.30;;;;;;;13.65;42.12;101702.84;103872;1274;108791;-67
2022/05/09 05:55:18;;;;;;;0.40;0.30;;;;;;;13.84;41.75;101705.00;103684;1275;94308;-67
2022/05/09 05:57:47;;;;;;;0.40;0.20;;;;;;;14.00;40.66;101706.67;103803;1274;94280;-65
2022/05/09 06:00:21;;;;;;;0.40;0.20;;;;;;;13.97;39.98;101704.05;103785;1275;108279;-67
2022/05/09 06:02:50;;;;;;;0.40;0.20;;;;;;;13.92;40.13;101711.81;103531;1274;99521;-65
2022/05/09 06:05:19;;;;;;;0.40;0.20;;;;;;;13.93;40.56;101710.56;104088;1274;109128;-68
2022/05/09 06:07:48;;;;;;;0.40;0.20;;;;;;;13.99;40.80;101714.52;103644;1274;94282;-67
2022/05/09 06:10:17;;;;;;;0.40;0.20;;;;;;;14.14;40.88;101713.16;103781;1274;94321;-66
2022/05/09 06:12:45;;;;;;;0.40;0.20;;;;;;;14.35;40.53;101712.73;103736;1274;108384;-66
2022/05/09 06:15:32;;;;;;;0.40;0.20;;;;;;;14.46;40.02;101713.92;103795;1273;99425;-66
2022/05/09 06:18:07;;;;;;;0.40;0.20;;;;;;;14.50;39.30;101713.67;103811;1274;108911;-66
2022/05/09 06:20:38;;;;;;;0.40;0.20;;;;;;;14.71;39.17;101713.05;104088;1274;94311;-65
2022/05/09 06:23:07;;;;;;;0.40;0.20;;;;;;;15.07;38.73;101720.11;103640;1278;94800;-64
2022/05/09 06:25:35;;;;;;;0.40;0.20;;;;;;;15.48;37.88;101720.73;104023;1277;108400;-64
2022/05/09 06:28:05;;;;;;;0.40;0.20;;;;;;;15.83;36.35;101721.60;103512;1274;98809;-64
2022/05/09 06:30:33;;;;;;;0.40;0.20;;;;;;;16.42;35.60;101717.62;103903;1274;108969;-65
2022/05/09 06:33:01;;;;;;;0.40;0.20;;;;;;;17.12;34.03;101725.21;103639;1274;95401;-67
2022/05/09 06:35:29;;;;;;;0.40;0.20;;;;;;;17.64;33.11;101724.02;103481;1275;94711;-66
2022/05/09 06:38:02;;;;;;;0.40;0.10;;;;;;;17.90;32.02;101728.67;103595;1274;107967;-66
2022/05/09 06:40:32;;;;;;;0.40;0.10;;;;;;;18.34;31.94;101727.64;103501;1274;99276;-65
2022/05/09 06:43:00;;;;;;;0.40;0.10;;;;;;;18.90;31.88;101730.70;103625;1277;108929;-66
2022/05/09 06:45:29;;;;;;;0.40;0.10;;;;;;;19.32;31.40;101736.02;103892;1274;94391;-66
2022/05/09 06:47:58;;;;;;;0.40;0.10;;;;;;;19.24;31.13;101736.39;104117;1274;95520;-65
2022/05/09 06:50:31;;;;;;;0.40;0.10;;;;;;;19.05;30.94;101731.58;103731;1275;107417;-66
2022/05/09 06:53:02;;;;;;;0.40;0.10;;;;;;;18.65;31.39;101734.56;103631;1274;99976;-66
2022/05/09 06:55:44;;;;;;;0.40;0.10;;;;;;;17.93;31.34;101738.62;103582;1275;108643;-64
2022/05/09 06:58:16;;;;;;;0.40;0.10;;;;;;;17.43;32.41;101744.30;103628;1274;94452;-66
2022/05/09 07:00:45;;;;;;;0.40;0.10;;;;;;;17.12;33.18;101746.55;103975;1274;95641;-64
2022/05/09 07:03:15;;;;;;;0.40;0.10;;;;;;;16.96;33.19;101746.16;103702;1274;109011;-67
2022/05/09 07:05:45;;;;;;;0.40;0.10;;;;;;;16.81;33.88;101746.60;103680;1274;99374;-63
2022/05/09 07:08:14;;;;;;;0.40;0.10;;;;;;;16.76;34.02;101746.21;103876;1275;108780;-66
2022/05/09 07:10:42;;;;;;;0.40;0.20;;;;;;;16.71;34.39;101749.59;103841;1274;94347;-67
2022/05/09 07:13:13;;;;;;;0.40;0.20;;;;;;;16.61;34.20;101747.73;104059;1274;94579;-64
2022/05/09 07:15:42;;;;;;;0.40;0.20;;;;;;;16.58;34.81;101752.30;103703;1274;108341;-67
2022/05/09 07:18:09;;;;;;;0.40;0.20;;;;;;;16.60;34.27;101754.41;103688;1274;99387;-67
2022/05/09 07:20:38;;;;;;;0.40;0.20;;;;;;;16.65;34.80;101754.80;104132;1274;108860;-66
2022/05/09 07:23:10;;;;;;;0.40;0.20;;;;;;;16.73;34.26;101755.26;103618;1274;94312;-66
2022/05/09 07:25:38;;;;;;;0.40;0.20;;;;;;;16.72;33.53;101750.98;105107;1274;94346;-66
2022/05/09 07:28:07;;;;;;;0.40;0.20;;;;;;;16.63;33.91;101753.80;103730;1274;108938;-65
2022/05/09 07:30:35;;;;;;;0.40;0.20;;;;;;;16.60;34.26;101751.36;103769;1274;99579;-66
2022/05/09 07:33:03;;;;;;;0.40;0.10;;;;;;;16.62;33.81;101748.27;103668;1274;108749;-66
2022/05/09 07:35:32;;;;;;;0.40;0.10;;;;;;;16.60;34.48;101752.98;103496;1277;94328;-66
2022/05/09 07:38:00;;;;;;;0.40;0.20;;;;;;;16.68;34.37;101752.73;103687;1277;94316;-65
2022/05/09 07:40:35;;;;;;;0.40;0.20;;;;;;;16.69;33.33;101757.19;103611;1275;108543;-66
2022/05/09 07:43:13;;;;;;;0.40;0.20;;;;;;;16.60;33.04;101755.85;103760;1275;99258;-69
2022/05/09 07:45:42;;;;;;;0.40;0.20;;;;;;;16.64;34.14;101754.64;104273;1274;108845;-67
2022/05/09 07:48:11;;;;;;;0.40;0.20;;;;;;;16.74;33.92;101756.52;103953;1274;96404;-67
2022/05/09 07:50:40;;;;;;;0.40;0.20;;;;;;;16.78;33.74;101755.48;103762;1274;94673;-68
2022/05/09 07:53:18;;;;;;;0.40;0.20;;;;;;;16.75;33.94;101754.67;103695;1275;108308;-67
2022/05/09 07:55:48;;;;;;;0.40;0.10;;;;;;;16.87;34.25;101752.00;103820;1274;99377;-66
2022/05/09 07:58:19;;;;;;;0.40;0.10;;;;;;;16.98;33.72;101745.73;103732;1274;109272;-67
2022/05/09 08:00:46;;;;;;;0.40;0.10;;;;;;;16.98;32.86;101750.05;103671;1277;94420;-67
2022/05/09 08:03:21;;;;;;;0.40;0.20;;;;;;;16.98;33.37;101750.23;103669;1274;94325;-66
2022/05/09 08:05:50;;;;;;;0.40;0.20;;;;;;;17.08;32.75;101747.59;103720;1274;108443;-67
2022/05/09 08:08:18;;;;;;;0.40;0.20;;;;;;;17.21;32.61;101751.45;103798;1274;99676;-66
2022/05/09 08:10:46;;;;;;;0.40;0.10;;;;;;;17.23;32.34;101752.14;103677;1274;108701;-67
2022/05/09 08:13:17;;;;;;;0.40;0.10;;;;;;;17.27;32.57;101749.14;103793;1274;94327;-68
2022/05/09 08:15:46;;;;;;;0.40;0.10;;;;;;;17.43;32.55;101746.27;103740;1274;94856;-66
2022/05/09 08:18:14;;;;;;;0.40;0.20;;;;;;;17.54;32.60;101743.58;103727;1275;108624;-68
2022/05/09 08:20:45;;;;;;;0.40;0.10;;;;;;;17.74;32.31;101745.75;103834;1274;99094;-64
2022/05/09 08:23:18;;;;;;;0.40;0.20;;;;;;;17.81;30.92;101744.27;103809;1274;109408;-65
2022/05/09 08:25:48;;;;;;;0.40;0.10;;;;;;;17.93;31.52;101740.27;104006;1274;94802;-67
2022/05/09 08:28:18;;;;;;;0.40;0.10;;;;;;;18.00;30.60;101742.70;103708;1274;94710;-66
2022/05/09 08:30:47;;;;;;;0.40;0.10;;;;;;;18.06;31.17;101743.05;103804;1273;109020;-65
2022/05/09 08:33:18;;;;;;;0.40;0.10;;;;;;;18.26;31.03;101738.38;103585;1277;98328;-66
2022/05/09 08:35:49;;;;;;;0.40;0.20;;;;;;;18.46;30.90;101733.48;103881;1274;108856;-66
2022/05/09 08:38:18;;;;;;;0.40;0.10;;;;;;;18.69;30.27;101736.04;104088;1274;95186;-66
2022/05/09 08:41:02;;;;;;;0.40;0.10;;;;;;;18.81;30.20;101734.10;103750;1274;95597;-67
2022/05/09 08:44:02;;;;;;;0.40;0.10;;;;;;;18.77;29.45;101738.20;103813;1274;108992;-68
2022/05/09 08:46:58;;;;;;;0.40;0.10;;;;;;;18.82;28.89;101739.47;103467;1274;99447;-66
2022/05/09 08:49:53;;;;;;;0.40;0.10;;;;;;;18.81;29.19;101737.00;103746;1275;109363;-67
2022/05/09 08:52:21;;;;;;;0.40;0.10;;;;;;;19.08;29.10;101740.42;103674;1274;94404;-68
2022/05/09 08:54:50;;;;;;;0.40;0.10;;;;;;;19.43;29.12;101738.66;103984;1276;94346;-67
2022/05/09 08:57:24;;;;;;;0.40;0.20;;;;;;;19.66;28.86;101741.85;104019;1274;108959;-67
2022/05/09 09:00:14;;;;;;;0.40;0.10;;;;;;;19.90;28.10;101737.96;103906;1274;99449;-67
2022/05/09 09:03:20;;;;;;;0.40;0.10;;;;;;;20.38;27.61;101731.46;103919;1274;109683;-66
2022/05/09 09:05:50;;;;;;;0.40;0.10;;;;;;;20.74;26.78;101733.79;103701;1274;94543;-67
2022/05/09 09:08:58;;;;;;;0.40;0.10;;;;;;;20.79;27.03;101731.02;103951;1274;94401;-66
2022/05/09 09:11:51;;;;;;;0.40;0.10;;;;;;;21.29;26.48;101732.90;103302;1277;108951;-67
2022/05/09 09:14:25;;;;;;;0.40;0.10;;;;;;;21.87;25.49;101730.00;103693;1274;99514;-66
2022/05/09 09:17:25;;;;;;;0.40;0.10;;;;;;;22.05;25.63;101737.73;103924;1274;108789;-66
2022/05/09 09:20:17;;;;;;;0.40;0.10;;;;;;;23.40;24.62;101735.63;103451;1274;96141;-67
2022/05/09 09:23:16;;;;;;;0.40;0.10;;;;;;;25.01;22.90;101732.08;103780;1274;94407;-66
2022/05/09 09:26:09;;;;;;;0.40;0.10;;;;;;;26.29;20.62;101727.36;104118;1274;108607;-66
2022/05/09 09:28:46;;;;;;;0.40;0.00;;;;;;;27.42;19.32;101732.76;103739;1274;98371;-66
2022/05/09 09:31:24;;;;;;;0.40;0.00;;;;;;;28.24;18.30;101734.64;103695;1274;108875;-67
2022/05/09 09:34:09;;;;;;;0.40;0.10;;;;;;;28.35;16.46;101734.15;103861;1274;95243;-66
2022/05/09 09:36:46;;;;;;;0.40;0.00;;;;;;;28.41;17.08;101737.16;103691;1275;95221;-66
2022/05/09 09:39:19;;;;;;;0.40;0.00;;;;;;;28.99;16.47;101736.78;103712;1274;110048;-65
2022/05/09 09:41:50;;;;;;;0.40;0.00;;;;;;;29.50;16.65;101736.35;103685;1276;99858;-66
2022/05/09 09:44:20;;;;;;;0.40;0.10;;;;;;;30.60;15.91;101731.52;103721;1274;107630;-67
2022/05/09 09:47:20;;;;;;;0.40;0.10;;;;;;;31.45;15.07;101726.89;103688;1274;95766;-65
2022/05/09 09:50:29;;;;;;;0.40;0.00;;;;;;;31.50;14.50;101731.20;103469;1274;95250;-67
2022/05/09 09:52:58;;;;;;;0.40;0.00;;;;;;;32.15;14.46;101729.05;103996;1274;109693;-65
2022/05/09 09:55:38;;;;;;;0.40;0.00;;;;;;;32.41;14.21;101730.39;103550;1274;99538;-66
2022/05/09 09:58:19;;;;;;;0.40;0.00;;;;;;;33.22;13.86;101722.96;103587;1274;108839;-66
2022/05/09 10:00:47;;;;;;;0.40;0.00;;;;;;;33.93;13.19;101719.50;103672;1274;95687;-66
2022/05/09 10:03:15;;;;;;;0.40;0.00;;;;;;;34.04;12.21;101722.62;103514;1274;95242;-66
2022/05/09 10:05:46;;;;;;;0.40;0.00;;;;;;;34.11;12.73;101718.69;103626;1274;109787;-68
2022/05/09 10:08:34;;;;;;;0.40;0.00;;;;;;;34.45;12.44;101721.43;103694;1274;99448;-67
2022/05/09 10:11:20;;;;;;;0.40;0.00;;;;;;;34.84;12.35;101716.67;103542;1275;109276;-67
2022/05/09 10:13:52;;;;;;;0.40;0.00;;;;;;;34.95;11.68;101717.27;103627;1274;95621;-66
2022/05/09 10:16:31;;;;;;;0.40;0.00;;;;;;;34.81;12.27;101716.98;103696;1274;95230;-66
2022/05/09 10:19:01;;;;;;;0.40;0.00;;;;;;;35.32;12.13;101715.20;103723;1274;108873;-65
2022/05/09 10:27:22;;;;;;;0.40;0.00;;;;;;;36.34;10.68;101721.63;103665;1274;96860;-66
2022/05/09 10:30:03;;;;;;;0.40;0.00;;;;;;;35.80;10.79;101716.11;103551;1274;95233;-66
2022/05/09 10:32:34;;;;;;;0.40;0.00;;;;;;;35.84;11.00;101714.33;103534;1274;108717;-66
2022/05/09 10:35:05;;;;;;;0.40;0.00;;;;;;;36.04;10.68;101706.66;103671;1274;100706;-65
2022/05/09 10:37:51;;;;;;;0.40;0.00;;;;;;;36.57;10.99;101704.25;103535;1277;108884;-66
2022/05/09 10:40:22;;;;;;;0.40;0.00;;;;;;;36.91;10.63;101696.13;103614;1274;95693;-66
2022/05/09 10:43:09;;;;;;;0.40;0.00;;;;;;;37.10;10.80;101697.27;103757;1275;95149;-66
2022/05/09 10:45:43;;;;;;;0.40;0.00;;;;;;;36.72;9.85;101703.43;103685;1274;110425;-66
2022/05/09 10:48:35;;;;;;;0.40;0.00;;;;;;;35.42;10.46;101699.51;103960;1274;98138;-67
2022/05/09 10:51:16;;;;;;;0.40;0.00;;;;;;;35.03;11.06;101700.20;103813;1277;108773;-67
2022/05/09 10:54:18;;;;;;;0.40;0.00;;;;;;;35.10;11.17;101694.25;103556;1276;96077;-67
2022/05/09 10:56:55;;;;;;;0.40;0.00;;;;;;;33.65;11.75;101692.15;103844;1274;97119;-67
2022/05/09 10:59:26;;;;;;;0.40;0.00;;;;;;;32.40;12.58;101690.20;103890;1274;109733;-67
2022/05/09 11:02:15;;;;;;;0.40;0.00;;;;;;;31.31;12.71;101694.64;103691;1274;99441;-66
2022/05/09 11:04:43;;;;;;;0.40;0.00;;;;;;;29.42;13.71;101689.96;103567;1276;108820;-66
2022/05/09 11:07:43;;;;;;;0.40;0.00;;;;;;;28.64;14.48;101688.98;103540;1277;95501;-66
2022/05/09 11:10:23;;;;;;;0.40;0.00;;;;;;;28.07;15.39;101690.13;103709;1274;95214;-66
2022/05/09 11:12:54;;;;;;;0.40;0.00;;;;;;;27.79;15.69;101681.58;103601;1274;109519;-66
2022/05/09 11:15:48;;;;;;;0.40;0.00;;;;;;;27.55;15.57;101682.00;103640;1274;99421;-65
2022/05/09 11:18:49;;;;;;;0.40;0.00;;;;;;;26.60;16.61;101676.70;103695;1274;107751;-65
2022/05/09 11:21:47;;;;;;;0.40;0.00;;;;;;;25.91;17.03;101678.53;103997;1275;95610;-66
2022/05/09 11:24:47;;;;;;;0.40;0.00;;;;;;;25.43;18.29;101677.85;103371;1274;97162;-65
2022/05/09 11:28:06;;;;;;;0.40;0.00;;;;;;;24.66;18.36;101677.52;103149;1275;110104;-65
2022/05/09 11:30:49;;;;;;;0.40;0.00;;;;;;;24.44;18.18;101675.27;104179;1274;98445;-65
2022/05/09 11:33:42;;;;;;;0.40;0.00;;;;;;;24.08;18.90;101677.75;104135;1274;108681;-66
2022/05/09 11:36:48;;;;;;;0.40;0.00;;;;;;;23.48;19.17;101683.20;103664;1274;95340;-66
2022/05/09 11:39:36;;;;;;;0.40;0.10;;;;;;;23.08;18.64;101685.16;103823;1274;95214;-66
2022/05/09 11:45:38;;;;;;;0.40;0.00;;;;;;;22.80;19.65;101680.63;103621;1274;98366;-65
2022/05/09 11:48:15;;;;;;;0.40;0.00;;;;;;;22.65;19.65;101676.04;103783;1274;108854;-64
2022/05/09 11:51:04;;;;;;;0.40;0.10;;;;;;;22.37;19.21;101671.42;104010;1274;95204;-65
2022/05/09 11:53:37;;;;;;;0.40;0.10;;;;;;;22.14;19.87;101669.38;103470;1273;95729;-65
2022/05/09 11:56:05;;;;;;;0.40;0.10;;;;;;;22.13;20.15;101670.02;103485;1274;109758;-64
2022/05/09 11:58:37;;;;;;;0.40;0.10;;;;;;;22.12;19.35;101663.91;103436;1274;99549;-64
2022/05/09 12:01:05;;;;;;;0.40;0.10;;;;;;;21.93;19.21;101659.16;103613;1274;108941;-65